createdAt,value
2018-07-31T05:28:15.443Z,17.07
2018-07-31T05:30:44.354Z,8.67
2018-07-31T05:33:13.231Z,9.93
2018-07-31T05:35:42.143Z,9.70
2018-07-31T05:38:11.362Z,12.13
2018-07-31T05:40:40.699Z,11.07
2018-07-31T05:43:09.584Z,11.37
2018-07-31T05:45:38.740Z,13.83
2018-07-31T05:48:07.634Z,23.47
2018-07-31T05:50:36.651Z,14.33
2018-07-31T05:53:05.563Z,14.60
2018-07-31T05:55:34.458Z,13.37
2018-07-31T05:58:03.362Z,11.30
2018-07-31T06:00:32.238Z,8.83
2018-07-31T06:03:01.135Z,13.40
2018-07-31T06:05:30.021Z,9.60
2018-07-31T06:07:58.926Z,9.87
2018-07-31T06:10:27.822Z,11.13
2018-07-31T06:12:56.747Z,13.83
2018-07-31T06:15:25.412Z,12.07
2018-07-31T06:17:54.336Z,20.23
2018-07-31T06:20:23.283Z,16.10
2018-07-31T06:22:52.178Z,9.40
2018-07-31T06:25:21.064Z,8.53
2018-07-31T06:27:50.030Z,8.70
2018-07-31T06:30:18.950Z,8.83
2018-07-31T06:32:47.897Z,11.90
2018-07-31T06:35:16.778Z,10.07
2018-07-31T06:37:45.702Z,9.97
2018-07-31T06:40:14.580Z,9.53
2018-07-31T06:42:43.470Z,11.43
2018-07-31T06:45:12.342Z,9.75
2018-07-31T06:47:41.277Z,12.43
2018-07-31T06:50:10.148Z,8.60
2018-07-31T06:52:39.051Z,8.33
2018-07-31T06:55:07.926Z,7.92
2018-07-31T06:57:36.847Z,7.97
2018-07-31T07:00:05.854Z,7.05
2018-07-31T07:02:34.798Z,6.45
2018-07-31T07:05:03.923Z,7.65
2018-07-31T07:07:32.853Z,11.60
2018-07-31T07:10:01.736Z,6.53
2018-07-31T07:12:30.636Z,9.10
2018-07-31T07:14:59.526Z,8.95
2018-07-31T07:17:28.456Z,6.28
2018-07-31T07:19:57.349Z,7.17
2018-07-31T07:22:26.255Z,7.70
2018-07-31T07:24:54.984Z,8.63
2018-07-31T07:27:23.854Z,8.20
2018-07-31T07:29:52.757Z,7.78
2018-07-31T07:32:21.693Z,7.70
2018-07-31T07:34:50.582Z,7.67
2018-07-31T07:37:19.473Z,9.48
2018-07-31T07:39:48.396Z,7.90
2018-07-31T07:42:17.275Z,8.33
2018-07-31T07:44:46.180Z,11.90
2018-07-31T07:47:15.077Z,13.72
2018-07-31T07:49:43.967Z,8.38
2018-07-31T07:52:12.946Z,7.83
2018-07-31T07:54:41.899Z,7.92
2018-07-31T07:57:10.787Z,8.88
2018-07-31T07:59:39.706Z,6.95
2018-07-31T08:02:08.600Z,8.25
2018-07-31T08:04:37.507Z,10.03
2018-07-31T08:07:06.608Z,8.65
2018-07-31T08:09:35.507Z,7.40
2018-07-31T08:12:04.396Z,11.28
2018-07-31T08:14:33.315Z,8.33
2018-07-31T08:17:02.194Z,8.60
2018-07-31T08:19:31.091Z,8.93
2018-07-31T08:21:59.985Z,9.23
2018-07-31T08:24:28.882Z,7.28
2018-07-31T08:26:57.795Z,8.53
2018-07-31T08:29:26.788Z,12.50
2018-07-31T08:31:55.687Z,7.67
2018-07-31T08:34:25.013Z,8.25
2018-07-31T08:36:53.850Z,10.68
2018-07-31T08:39:22.774Z,8.38
2018-07-31T08:41:51.658Z,8.35
2018-07-31T08:44:20.589Z,9.60
2018-07-31T08:46:49.494Z,12.45
2018-07-31T08:49:18.396Z,13.95
2018-07-31T08:51:47.302Z,9.80
2018-07-31T08:54:16.398Z,9.53
2018-07-31T08:56:45.295Z,12.05
2018-07-31T08:59:14.316Z,9.35
2018-07-31T09:01:44.332Z,10.38
2018-07-31T09:04:13.470Z,9.33
2018-07-31T09:06:42.366Z,8.98
2018-07-31T09:09:12.121Z,8.50
2018-07-31T09:11:41.066Z,10.38
2018-07-31T09:14:10.289Z,12.82
2018-07-31T09:16:39.195Z,9.90
2018-07-31T09:19:08.092Z,9.73
2018-07-31T09:21:37.106Z,8.63
2018-07-31T09:24:05.980Z,10.58
2018-07-31T09:26:34.899Z,11.20
2018-07-31T09:29:03.885Z,11.28
2018-07-31T09:31:32.785Z,10.75
2018-07-31T09:34:01.683Z,8.60
2018-07-31T09:36:30.605Z,7.92
2018-07-31T09:38:59.482Z,8.35
2018-07-31T09:41:28.384Z,8.50
2018-07-31T09:43:57.274Z,6.12
2018-07-31T09:46:26.174Z,10.05
2018-07-31T09:48:55.066Z,8.30
2018-07-31T09:51:23.962Z,5.33
2018-07-31T09:53:52.906Z,7.12
2018-07-31T09:56:21.811Z,7.55
2018-07-31T09:58:50.687Z,8.25
2018-07-31T10:01:20.123Z,5.50
2018-07-31T10:03:49.715Z,6.92
2018-07-31T10:06:18.601Z,8.23
2018-07-31T10:08:47.513Z,6.92
2018-07-31T10:11:16.408Z,5.17
2018-07-31T10:13:45.377Z,4.45
2018-07-31T10:16:14.354Z,6.53
2018-07-31T10:18:43.300Z,9.45
2018-07-31T10:21:12.260Z,6.03
2018-07-31T10:23:41.146Z,7.08
2018-07-31T10:26:10.043Z,5.20
2018-07-31T10:28:38.930Z,5.50
2018-07-31T10:31:07.825Z,7.08
2018-07-31T10:33:36.707Z,6.58
2018-07-31T10:36:05.599Z,4.95
2018-07-31T10:38:34.475Z,5.12
2018-07-31T10:41:03.366Z,6.72
2018-07-31T10:43:32.272Z,4.28
2018-07-31T10:46:01.155Z,6.83
2018-07-31T10:48:30.062Z,5.97
2018-07-31T10:50:58.986Z,7.50
2018-07-31T10:53:27.827Z,4.60
2018-07-31T10:55:56.732Z,8.20
2018-07-31T10:58:25.988Z,5.60
2018-07-31T11:00:54.987Z,6.87
2018-07-31T11:03:23.962Z,6.65
2018-07-31T11:05:52.851Z,4.75
2018-07-31T11:08:21.746Z,3.98
2018-07-31T11:10:50.631Z,4.83
2018-07-31T11:13:19.547Z,4.62
2018-07-31T11:15:48.441Z,4.90
2018-07-31T11:18:17.350Z,4.90
2018-07-31T11:20:46.278Z,6.17
2018-07-31T11:23:15.740Z,3.72
2018-07-31T11:25:44.626Z,6.25
2018-07-31T11:28:13.606Z,4.47
2018-07-31T11:30:43.087Z,3.80
2018-07-31T11:33:12.018Z,4.20
2018-07-31T11:35:40.897Z,3.40
2018-07-31T11:38:09.804Z,4.00
2018-07-31T11:40:38.678Z,2.90
2018-07-31T11:43:07.592Z,4.67
2018-07-31T11:45:36.557Z,4.00
2018-07-31T11:48:05.418Z,3.30
2018-07-31T11:50:34.373Z,4.65
2018-07-31T11:53:03.286Z,3.22
2018-07-31T11:55:32.348Z,3.37
2018-07-31T11:58:01.262Z,7.50
2018-07-31T12:00:30.151Z,4.83
2018-07-31T12:02:59.033Z,4.60
2018-07-31T12:05:27.938Z,3.45
2018-07-31T12:07:56.963Z,3.05
2018-07-31T12:10:25.879Z,5.12
2018-07-31T12:12:54.860Z,4.08
2018-07-31T12:15:23.763Z,3.20
2018-07-31T12:17:52.449Z,3.98
2018-07-31T12:20:21.694Z,5.00
2018-07-31T12:22:50.589Z,4.15
2018-07-31T12:25:19.592Z,3.47
2018-07-31T12:27:48.475Z,3.72
2018-07-31T12:30:17.358Z,5.80
2018-07-31T12:32:46.268Z,5.60
2018-07-31T12:35:15.180Z,3.47
2018-07-31T12:37:44.061Z,4.40
2018-07-31T12:40:13.044Z,3.60
2018-07-31T12:42:42.041Z,4.45
2018-07-31T12:45:10.917Z,5.00
2018-07-31T12:47:39.806Z,4.97
2018-07-31T12:50:08.800Z,3.47
2018-07-31T12:52:37.662Z,4.35
2018-07-31T12:55:06.611Z,3.00
2018-07-31T12:57:35.513Z,2.85
2018-07-31T13:00:04.686Z,3.85
2018-07-31T13:02:33.584Z,4.45
2018-07-31T13:05:02.471Z,3.30
2018-07-31T13:07:31.363Z,7.72
2018-07-31T13:10:00.279Z,2.58
2018-07-31T13:12:29.470Z,3.40
2018-07-31T13:14:58.363Z,5.80
2018-07-31T13:17:27.251Z,6.40
2018-07-31T13:19:56.148Z,6.00
2018-07-31T13:22:25.035Z,2.95
2018-07-31T13:24:53.933Z,3.70
2018-07-31T13:27:22.819Z,10.32
2018-07-31T13:29:51.742Z,5.62
2018-07-31T13:32:20.625Z,5.67
2018-07-31T13:34:49.517Z,5.30
2018-07-31T13:37:18.635Z,3.47
2018-07-31T13:39:47.547Z,7.22
2018-07-31T13:42:16.544Z,3.40
2018-07-31T13:44:45.418Z,4.37
2018-07-31T13:47:14.406Z,3.90
2018-07-31T13:49:43.293Z,3.87
2018-07-31T13:52:12.192Z,3.90
2018-07-31T13:54:41.097Z,4.65
2018-07-31T13:57:09.978Z,3.75
2018-07-31T13:59:38.882Z,4.08
2018-07-31T14:02:07.846Z,5.75
2018-07-31T14:04:36.750Z,5.53
2018-07-31T14:07:05.714Z,2.60
2018-07-31T14:09:34.595Z,3.12
2018-07-31T14:12:03.257Z,3.67
2018-07-31T14:14:32.055Z,2.87
2018-07-31T14:17:00.947Z,7.92
2018-07-31T14:19:29.841Z,4.17
2018-07-31T14:21:58.740Z,2.83
2018-07-31T14:24:27.677Z,2.92
2018-07-31T14:26:56.542Z,2.10
2018-07-31T14:29:25.422Z,2.85
2018-07-31T14:31:54.326Z,4.62
2018-07-31T14:34:23.458Z,3.37
2018-07-31T14:36:52.377Z,5.70
2018-07-31T14:39:21.246Z,5.97
2018-07-31T14:41:50.316Z,4.22
2018-07-31T14:44:19.205Z,2.98
2018-07-31T14:46:48.090Z,3.08
2018-07-31T14:49:16.987Z,1.92
2018-07-31T14:51:45.874Z,1.77
2018-07-31T14:54:15.003Z,2.65
2018-07-31T14:56:43.922Z,2.12
2018-07-31T14:59:12.882Z,3.55
2018-07-31T15:01:41.779Z,3.55
2018-07-31T15:04:10.671Z,2.67
2018-07-31T15:06:39.588Z,2.37
2018-07-31T15:09:09.407Z,3.45
2018-07-31T15:11:38.323Z,13.83
2018-07-31T15:14:07.210Z,3.98
2018-07-31T15:16:36.169Z,2.33
2018-07-31T15:19:05.081Z,3.67
2018-07-31T15:21:33.991Z,3.02
2018-07-31T15:24:02.884Z,2.90
2018-07-31T15:26:31.894Z,2.25
2018-07-31T15:29:00.809Z,3.22
2018-07-31T15:31:29.771Z,5.62
2018-07-31T15:33:58.676Z,2.85
2018-07-31T15:36:27.629Z,7.47
2018-07-31T15:38:56.523Z,3.10
2018-07-31T15:41:25.486Z,7.62
2018-07-31T15:43:54.370Z,3.45
2018-07-31T15:46:23.717Z,3.15
2018-07-31T15:48:52.804Z,7.58
2018-07-31T15:51:21.942Z,6.30
2018-07-31T15:53:51.266Z,5.05
2018-07-31T15:56:20.192Z,7.45
2018-07-31T15:58:49.641Z,3.15
2018-07-31T16:01:18.867Z,4.47
2018-07-31T16:03:48.266Z,4.30
2018-07-31T16:06:17.532Z,2.87
2018-07-31T16:08:47.414Z,3.83
2018-07-31T16:11:17.980Z,2.92
2018-07-31T16:13:47.613Z,4.00
2018-07-31T16:16:17.131Z,4.70
2018-07-31T16:18:46.530Z,4.95
2018-07-31T16:21:16.545Z,3.37
2018-07-31T16:23:47.779Z,4.85
2018-07-31T16:26:16.904Z,5.35
2018-07-31T16:28:45.888Z,4.75
2018-07-31T16:31:14.950Z,3.52
2018-07-31T16:33:43.988Z,3.70
2018-07-31T16:36:13.004Z,4.33
2018-07-31T16:38:42.234Z,3.98
2018-07-31T16:41:11.210Z,6.00
2018-07-31T16:43:40.115Z,3.90
2018-07-31T16:46:10.826Z,5.53
2018-07-31T16:48:40.181Z,4.47
2018-07-31T16:51:09.134Z,5.65
2018-07-31T16:53:39.154Z,6.75
2018-07-31T16:56:09.468Z,2.40
2018-07-31T16:58:39.230Z,6.37
2018-07-31T17:01:09.341Z,4.08
2018-07-31T17:03:38.433Z,5.65
2018-07-31T17:06:07.344Z,5.40
2018-07-31T17:08:38.167Z,4.95
2018-07-31T17:11:08.048Z,5.47
2018-07-31T17:13:37.923Z,9.73
2018-07-31T17:16:07.470Z,2.90
2018-07-31T17:18:37.398Z,6.05
2018-07-31T17:21:06.334Z,6.28
2018-07-31T17:23:36.707Z,4.58
2018-07-31T17:26:06.211Z,10.20
2018-07-31T17:28:35.134Z,4.60
2018-07-31T17:31:03.998Z,3.95
2018-07-31T17:33:32.891Z,4.47
2018-07-31T17:36:02.934Z,4.62
2018-07-31T17:38:33.259Z,2.75
2018-07-31T17:41:03.567Z,6.17
2018-07-31T17:43:34.053Z,3.52
2018-07-31T17:46:03.210Z,6.65
2018-07-31T17:48:33.370Z,4.55
2018-07-31T17:51:02.638Z,4.90
2018-07-31T17:53:34.380Z,4.62
2018-07-31T17:56:04.961Z,6.03
2018-07-31T17:58:34.377Z,3.72
2018-07-31T18:01:04.114Z,5.30
2018-07-31T18:03:33.992Z,4.28
2018-07-31T18:06:03.028Z,6.00
2018-07-31T18:08:31.960Z,5.08
2018-07-31T18:11:03.001Z,3.77
2018-07-31T18:13:34.146Z,8.83
2018-07-31T18:16:04.048Z,4.22
2018-07-31T18:18:33.835Z,4.22
2018-07-31T18:21:03.438Z,4.58
2018-07-31T18:23:32.703Z,4.60
2018-07-31T18:26:01.344Z,8.88
2018-07-31T18:28:30.114Z,9.83
2018-07-31T18:30:58.996Z,6.05
2018-07-31T18:33:27.936Z,4.05
2018-07-31T18:35:56.867Z,6.72
2018-07-31T18:38:25.758Z,7.35
2018-07-31T18:40:54.670Z,2.85
2018-07-31T18:43:23.552Z,6.10
2018-07-31T18:45:52.514Z,4.35
2018-07-31T18:48:21.394Z,5.87
2018-07-31T18:50:50.312Z,9.45
2018-07-31T18:53:19.281Z,5.62
2018-07-31T18:55:48.113Z,4.90
2018-07-31T18:58:17.151Z,5.95
2018-07-31T19:00:46.083Z,5.12
2018-07-31T19:03:14.981Z,5.72
2018-07-31T19:05:43.932Z,3.85
2018-07-31T19:08:12.823Z,4.45
2018-07-31T19:10:41.702Z,5.55
2018-07-31T19:13:10.678Z,6.12
2018-07-31T19:15:39.523Z,3.55
2018-07-31T19:18:08.439Z,6.67
2018-07-31T19:20:37.134Z,4.35
2018-07-31T19:23:05.907Z,5.35
2018-07-31T19:25:34.924Z,3.52
2018-07-31T19:28:03.872Z,6.53
2018-07-31T19:30:32.690Z,6.30
2018-07-31T19:33:01.677Z,5.95
2018-07-31T19:35:30.583Z,4.45
2018-07-31T19:37:59.498Z,3.65
2018-07-31T19:40:28.454Z,4.65
2018-07-31T19:42:57.651Z,5.25
2018-07-31T19:45:27.547Z,7.05
2018-07-31T19:47:56.508Z,4.47
2018-07-31T19:50:25.490Z,3.17
2018-07-31T19:52:54.370Z,4.72
2018-07-31T19:55:23.980Z,3.62
2018-07-31T19:57:53.143Z,4.05
2018-07-31T20:00:22.208Z,3.70
2018-07-31T20:02:51.468Z,5.20
2018-07-31T20:05:20.937Z,3.05
2018-07-31T20:07:50.438Z,8.55
2018-07-31T20:10:19.463Z,4.72
2018-07-31T20:12:48.349Z,4.25
2018-07-31T20:15:17.379Z,4.12
2018-07-31T20:17:47.083Z,4.55
2018-07-31T20:20:16.458Z,4.50
2018-07-31T20:22:45.581Z,4.08
2018-07-31T20:25:14.678Z,4.35
2018-07-31T20:27:44.097Z,5.40
2018-07-31T20:30:13.036Z,6.12
2018-07-31T20:32:42.473Z,4.50
2018-07-31T20:35:11.380Z,3.25
2018-07-31T20:37:41.255Z,3.25
2018-07-31T20:40:11.104Z,5.10
2018-07-31T20:42:40.595Z,3.80
2018-07-31T20:45:09.571Z,4.95
2018-07-31T20:47:39.066Z,4.37
2018-07-31T20:50:07.978Z,3.20
2018-07-31T20:52:37.171Z,2.67
2018-07-31T20:55:06.208Z,3.40
2018-07-31T20:57:35.784Z,4.17
2018-07-31T21:00:05.590Z,2.80
2018-07-31T21:02:35.027Z,5.15
2018-07-31T21:05:04.473Z,2.70
2018-07-31T21:07:33.596Z,5.72
2018-07-31T21:10:02.701Z,2.65
2018-07-31T21:12:31.889Z,4.25
2018-07-31T21:15:00.850Z,2.70
2018-07-31T21:17:30.026Z,3.83
2018-07-31T21:19:59.721Z,3.70
2018-07-31T21:22:28.952Z,3.13
2018-07-31T21:24:57.932Z,5.70
2018-07-31T21:27:26.859Z,3.93
2018-07-31T21:29:55.779Z,3.02
2018-07-31T21:32:25.026Z,3.20
2018-07-31T21:34:54.087Z,2.70
2018-07-31T21:37:23.098Z,4.93
2018-07-31T21:39:52.142Z,2.87
2018-07-31T21:42:21.399Z,2.77
2018-07-31T21:44:50.459Z,4.23
2018-07-31T21:47:19.523Z,3.43
2018-07-31T21:49:48.419Z,5.50
2018-07-31T21:52:17.792Z,2.53
2018-07-31T21:54:46.999Z,3.23
2018-07-31T21:57:15.966Z,2.80
2018-07-31T21:59:45.053Z,2.03
2018-07-31T22:02:14.444Z,4.13
2018-07-31T22:04:43.717Z,2.40
2018-07-31T22:07:13.023Z,3.53
2018-07-31T22:09:44.145Z,2.00
2018-07-31T22:12:13.419Z,6.27
2018-07-31T22:14:43.951Z,3.30
2018-07-31T22:17:13.540Z,3.40
2018-07-31T22:19:42.551Z,4.30
2018-07-31T22:22:11.881Z,5.33
2018-07-31T22:24:40.915Z,3.13
2018-07-31T22:27:10.012Z,3.33
2018-07-31T22:29:38.964Z,3.00
2018-07-31T22:32:08.293Z,3.77
2018-07-31T22:34:37.378Z,3.87
2018-07-31T22:37:06.278Z,3.93
2018-07-31T22:39:35.460Z,5.80
2018-07-31T22:42:04.551Z,5.63
2018-07-31T22:44:40.304Z,3.77
2018-07-31T22:47:09.402Z,6.50
2018-07-31T22:49:38.440Z,2.90
2018-07-31T22:52:07.745Z,4.33
2018-07-31T22:54:36.682Z,5.17
2018-07-31T22:57:06.230Z,4.87
2018-07-31T22:59:36.225Z,4.93
2018-07-31T23:02:05.391Z,4.80
2018-07-31T23:04:34.346Z,7.97
2018-07-31T23:07:03.272Z,8.63
2018-07-31T23:09:32.556Z,8.17
2018-07-31T23:12:01.781Z,8.40
2018-07-31T23:14:30.654Z,9.33
2018-07-31T23:16:59.662Z,7.67
2018-07-31T23:19:28.585Z,6.17
2018-07-31T23:21:57.549Z,5.13
2018-07-31T23:24:26.634Z,5.83
2018-07-31T23:26:56.221Z,9.13
2018-07-31T23:29:26.366Z,7.23
2018-07-31T23:31:55.842Z,4.90
2018-07-31T23:34:25.972Z,4.80
2018-07-31T23:36:54.942Z,6.87
2018-07-31T23:39:23.963Z,5.13
2018-07-31T23:41:52.953Z,6.77
2018-07-31T23:44:22.456Z,5.67
2018-07-31T23:46:51.875Z,5.17
2018-07-31T23:49:20.856Z,4.97
2018-07-31T23:51:49.783Z,5.90
2018-07-31T23:54:18.668Z,7.00
2018-07-31T23:56:47.551Z,6.37
2018-07-31T23:59:16.460Z,5.23
